sensor_id;sensor_type;location;lat;lon;timestamp;pressure;altitude;pressure_sealevel;temperature
22322;BMP180;11328;53.928;18.522;2024-03-29T00:01:27;98325.00;;;10.60
22322;BMP180;11328;53.928;18.522;2024-03-29T00:03:53;98309.00;;;10.60
22322;BMP180;11328;53.928;18.522;2024-03-29T00:06:20;98333.00;;;10.50
22322;BMP180;11328;53.928;18.522;2024-03-29T00:08:46;98335.00;;;10.40
22322;BMP180;11328;53.928;18.522;2024-03-29T00:11:12;98337.00;;;10.40
22322;BMP180;11328;53.928;18.522;2024-03-29T00:13:39;98349.00;;;10.30
22322;BMP180;11328;53.928;18.522;2024-03-29T00:16:06;98344.00;;;10.30
22322;BMP180;11328;53.928;18.522;2024-03-29T00:18:32;98351.00;;;10.20
22322;BMP180;11328;53.928;18.522;2024-03-29T00:20:59;98365.00;;;10.30
22322;BMP180;11328;53.928;18.522;2024-03-29T00:23:25;98349.00;;;10.20
22322;BMP180;11328;53.928;18.522;2024-03-29T00:25:51;98359.00;;;10.20
22322;BMP180;11328;53.928;18.522;2024-03-29T00:28:17;98359.00;;;10.20
22322;BMP180;11328;53.928;18.522;2024-03-29T00:30:43;98367.00;;;10.30
22322;BMP180;11328;53.928;18.522;2024-03-29T00:33:09;98369.00;;;10.20
22322;BMP180;11328;53.928;18.522;2024-03-29T00:35:36;98380.00;;;10.10
22322;BMP180;11328;53.928;18.522;2024-03-29T00:38:02;98372.00;;;10.00
22322;BMP180;11328;53.928;18.522;2024-03-29T00:40:29;98367.00;;;9.90
22322;BMP180;11328;53.928;18.522;2024-03-29T00:42:55;98378.00;;;9.90
22322;BMP180;11328;53.928;18.522;2024-03-29T00:45:21;98371.00;;;9.70
22322;BMP180;11328;53.928;18.522;2024-03-29T00:47:47;98391.00;;;9.60
22322;BMP180;11328;53.928;18.522;2024-03-29T00:50:13;98400.00;;;9.50
22322;BMP180;11328;53.928;18.522;2024-03-29T00:52:39;98412.00;;;9.50
22322;BMP180;11328;53.928;18.522;2024-03-29T00:55:06;98417.00;;;9.40
22322;BMP180;11328;53.928;18.522;2024-03-29T00:57:32;98413.00;;;9.50
22322;BMP180;11328;53.928;18.522;2024-03-29T00:59:58;98430.00;;;9.30
22322;BMP180;11328;53.928;18.522;2024-03-29T01:02:24;98430.00;;;9.40
22322;BMP180;11328;53.928;18.522;2024-03-29T01:04:51;98445.00;;;9.40
22322;BMP180;11328;53.928;18.522;2024-03-29T01:07:17;98442.00;;;9.40
22322;BMP180;11328;53.928;18.522;2024-03-29T01:09:44;98453.00;;;9.30
22322;BMP180;11328;53.928;18.522;2024-03-29T01:12:10;98460.00;;;9.40
22322;BMP180;11328;53.928;18.522;2024-03-29T01:14:37;98455.00;;;9.40
22322;BMP180;11328;53.928;18.522;2024-03-29T01:17:03;98461.00;;;9.40
22322;BMP180;11328;53.928;18.522;2024-03-29T01:19:30;98462.00;;;9.40
22322;BMP180;11328;53.928;18.522;2024-03-29T01:21:56;98464.00;;;9.40
22322;BMP180;11328;53.928;18.522;2024-03-29T01:24:22;98471.00;;;9.40
22322;BMP180;11328;53.928;18.522;2024-03-29T01:26:49;98480.00;;;9.40
22322;BMP180;11328;53.928;18.522;2024-03-29T01:29:15;98484.00;;;9.30
22322;BMP180;11328;53.928;18.522;2024-03-29T01:31:42;98496.00;;;9.30
22322;BMP180;11328;53.928;18.522;2024-03-29T01:34:08;98499.00;;;9.40
22322;BMP180;11328;53.928;18.522;2024-03-29T01:36:34;98501.00;;;9.30
22322;BMP180;11328;53.928;18.522;2024-03-29T01:39:00;98520.00;;;9.30
22322;BMP180;11328;53.928;18.522;2024-03-29T01:41:27;98520.00;;;9.40
22322;BMP180;11328;53.928;18.522;2024-03-29T01:43:54;98529.00;;;9.40
22322;BMP180;11328;53.928;18.522;2024-03-29T01:46:23;98542.00;;;9.30
22322;BMP180;11328;53.928;18.522;2024-03-29T01:48:51;98545.00;;;9.30
22322;BMP180;11328;53.928;18.522;2024-03-29T01:51:19;98547.00;;;9.30
22322;BMP180;11328;53.928;18.522;2024-03-29T01:53:50;98547.00;;;9.30
22322;BMP180;11328;53.928;18.522;2024-03-29T01:56:20;98552.00;;;9.20
22322;BMP180;11328;53.928;18.522;2024-03-29T01:58:51;98561.00;;;9.10
22322;BMP180;11328;53.928;18.522;2024-03-29T02:01:20;98558.00;;;9.20
22322;BMP180;11328;53.928;18.522;2024-03-29T02:03:47;98562.00;;;9.00
22322;BMP180;11328;53.928;18.522;2024-03-29T02:06:14;98566.00;;;8.90
22322;BMP180;11328;53.928;18.522;2024-03-29T02:08:40;98570.00;;;8.90
22322;BMP180;11328;53.928;18.522;2024-03-29T02:11:06;98578.00;;;8.90
22322;BMP180;11328;53.928;18.522;2024-03-29T02:13:33;98582.00;;;8.90
22322;BMP180;11328;53.928;18.522;2024-03-29T02:15:59;98600.00;;;9.10
22322;BMP180;11328;53.928;18.522;2024-03-29T02:18:25;98614.00;;;9.10
22322;BMP180;11328;53.928;18.522;2024-03-29T02:20:53;98610.00;;;9.00
22322;BMP180;11328;53.928;18.522;2024-03-29T02:23:32;98612.00;;;8.90
22322;BMP180;11328;53.928;18.522;2024-03-29T02:26:00;98624.00;;;8.90
22322;BMP180;11328;53.928;18.522;2024-03-29T02:28:26;98627.00;;;8.90
22322;BMP180;11328;53.928;18.522;2024-03-29T02:30:52;98631.00;;;8.90
22322;BMP180;11328;53.928;18.522;2024-03-29T02:33:21;98626.00;;;9.00
22322;BMP180;11328;53.928;18.522;2024-03-29T02:35:48;98628.00;;;9.00
22322;BMP180;11328;53.928;18.522;2024-03-29T02:38:14;98637.00;;;8.90
22322;BMP180;11328;53.928;18.522;2024-03-29T02:40:40;98648.00;;;9.00
22322;BMP180;11328;53.928;18.522;2024-03-29T02:43:06;98650.00;;;9.00
22322;BMP180;11328;53.928;18.522;2024-03-29T02:45:33;98650.00;;;9.00
22322;BMP180;11328;53.928;18.522;2024-03-29T02:47:59;98656.00;;;8.80
22322;BMP180;11328;53.928;18.522;2024-03-29T02:50:25;98666.00;;;8.80
22322;BMP180;11328;53.928;18.522;2024-03-29T02:52:51;98665.00;;;8.70
22322;BMP180;11328;53.928;18.522;2024-03-29T02:55:17;98670.00;;;8.70
22322;BMP180;11328;53.928;18.522;2024-03-29T02:57:43;98674.00;;;8.70
22322;BMP180;11328;53.928;18.522;2024-03-29T03:00:10;98677.00;;;8.50
22322;BMP180;11328;53.928;18.522;2024-03-29T03:02:40;98681.00;;;8.60
22322;BMP180;11328;53.928;18.522;2024-03-29T03:05:07;98687.00;;;8.50
22322;BMP180;11328;53.928;18.522;2024-03-29T03:07:37;98673.00;;;8.50
22322;BMP180;11328;53.928;18.522;2024-03-29T03:10:21;98691.00;;;8.30
22322;BMP180;11328;53.928;18.522;2024-03-29T03:13:06;98686.00;;;8.30
22322;BMP180;11328;53.928;18.522;2024-03-29T03:15:32;98701.00;;;8.20
22322;BMP180;11328;53.928;18.522;2024-03-29T03:17:58;98696.00;;;8.20
22322;BMP180;11328;53.928;18.522;2024-03-29T03:20:24;98696.00;;;8.20
22322;BMP180;11328;53.928;18.522;2024-03-29T03:22:56;98696.00;;;8.20
22322;BMP180;11328;53.928;18.522;2024-03-29T03:25:26;98696.00;;;8.20
22322;BMP180;11328;53.928;18.522;2024-03-29T03:27:52;98700.00;;;8.20
22322;BMP180;11328;53.928;18.522;2024-03-29T03:30:18;98704.00;;;8.20
22322;BMP180;11328;53.928;18.522;2024-03-29T03:32:44;98703.00;;;8.20
22322;BMP180;11328;53.928;18.522;2024-03-29T03:35:10;98689.00;;;8.10
22322;BMP180;11328;53.928;18.522;2024-03-29T03:37:36;98699.00;;;8.10
22322;BMP180;11328;53.928;18.522;2024-03-29T03:40:03;98702.00;;;8.10
22322;BMP180;11328;53.928;18.522;2024-03-29T03:42:30;98699.00;;;8.10
22322;BMP180;11328;53.928;18.522;2024-03-29T03:44:56;98697.00;;;8.10
22322;BMP180;11328;53.928;18.522;2024-03-29T03:47:22;98705.00;;;8.10
22322;BMP180;11328;53.928;18.522;2024-03-29T03:49:48;98703.00;;;8.10
22322;BMP180;11328;53.928;18.522;2024-03-29T03:52:14;98698.00;;;8.20
22322;BMP180;11328;53.928;18.522;2024-03-29T03:54:40;98702.00;;;8.20
22322;BMP180;11328;53.928;18.522;2024-03-29T03:57:07;98695.00;;;8.20
22322;BMP180;11328;53.928;18.522;2024-03-29T03:59:33;98689.00;;;8.10
22322;BMP180;11328;53.928;18.522;2024-03-29T04:01:59;98693.00;;;8.10
22322;BMP180;11328;53.928;18.522;2024-03-29T04:04:25;98705.00;;;8.10
22322;BMP180;11328;53.928;18.522;2024-03-29T04:06:51;98703.00;;;8.00
22322;BMP180;11328;53.928;18.522;2024-03-29T04:09:17;98692.00;;;7.90
22322;BMP180;11328;53.928;18.522;2024-03-29T04:11:44;98701.00;;;8.00
22322;BMP180;11328;53.928;18.522;2024-03-29T04:14:10;98707.00;;;7.90
22322;BMP180;11328;53.928;18.522;2024-03-29T04:16:36;98699.00;;;7.90
22322;BMP180;11328;53.928;18.522;2024-03-29T04:19:02;98703.00;;;7.90
22322;BMP180;11328;53.928;18.522;2024-03-29T04:21:28;98701.00;;;7.90
22322;BMP180;11328;53.928;18.522;2024-03-29T04:23:54;98710.00;;;7.80
22322;BMP180;11328;53.928;18.522;2024-03-29T04:26:20;98708.00;;;7.80
22322;BMP180;11328;53.928;18.522;2024-03-29T04:28:46;98702.00;;;7.80
22322;BMP180;11328;53.928;18.522;2024-03-29T04:31:12;98707.00;;;7.80
22322;BMP180;11328;53.928;18.522;2024-03-29T04:33:38;98709.00;;;7.70
22322;BMP180;11328;53.928;18.522;2024-03-29T04:36:05;98705.00;;;7.70
22322;BMP180;11328;53.928;18.522;2024-03-29T04:38:34;98714.00;;;7.70
22322;BMP180;11328;53.928;18.522;2024-03-29T04:41:00;98718.00;;;7.70
22322;BMP180;11328;53.928;18.522;2024-03-29T04:43:28;98722.00;;;7.60
22322;BMP180;11328;53.928;18.522;2024-03-29T04:46:13;98714.00;;;7.70
22322;BMP180;11328;53.928;18.522;2024-03-29T04:48:41;98715.00;;;7.60
22322;BMP180;11328;53.928;18.522;2024-03-29T04:51:08;98721.00;;;7.70
22322;BMP180;11328;53.928;18.522;2024-03-29T04:53:39;98717.00;;;7.80
22322;BMP180;11328;53.928;18.522;2024-03-29T04:56:06;98717.00;;;7.80
22322;BMP180;11328;53.928;18.522;2024-03-29T04:58:32;98722.00;;;7.80
22322;BMP180;11328;53.928;18.522;2024-03-29T05:00:58;98722.00;;;7.90
22322;BMP180;11328;53.928;18.522;2024-03-29T05:03:24;98726.00;;;8.00
22322;BMP180;11328;53.928;18.522;2024-03-29T05:05:52;98718.00;;;8.10
22322;BMP180;11328;53.928;18.522;2024-03-29T05:08:20;98725.00;;;8.20
22322;BMP180;11328;53.928;18.522;2024-03-29T05:10:49;98730.00;;;8.20
22322;BMP180;11328;53.928;18.522;2024-03-29T05:13:19;98720.00;;;8.30
22322;BMP180;11328;53.928;18.522;2024-03-29T05:15:47;98736.00;;;8.30
22322;BMP180;11328;53.928;18.522;2024-03-29T05:18:13;98721.00;;;8.30
22322;BMP180;11328;53.928;18.522;2024-03-29T05:20:39;98752.00;;;8.40
22322;BMP180;11328;53.928;18.522;2024-03-29T05:23:07;98749.00;;;8.50
22322;BMP180;11328;53.928;18.522;2024-03-29T05:25:33;98739.00;;;8.70
22322;BMP180;11328;53.928;18.522;2024-03-29T05:28:01;98744.00;;;8.80
22322;BMP180;11328;53.928;18.522;2024-03-29T05:30:27;98767.00;;;8.90
22322;BMP180;11328;53.928;18.522;2024-03-29T05:32:54;98753.00;;;9.00
22322;BMP180;11328;53.928;18.522;2024-03-29T05:35:21;98768.00;;;9.00
22322;BMP180;11328;53.928;18.522;2024-03-29T05:37:47;98762.00;;;9.00
22322;BMP180;11328;53.928;18.522;2024-03-29T05:40:17;98760.00;;;9.10
22322;BMP180;11328;53.928;18.522;2024-03-29T05:42:43;98749.00;;;9.10
22322;BMP180;11328;53.928;18.522;2024-03-29T05:45:27;98770.00;;;9.10
22322;BMP180;11328;53.928;18.522;2024-03-29T05:47:55;98764.00;;;9.00
22322;BMP180;11328;53.928;18.522;2024-03-29T05:50:23;98765.00;;;9.00
22322;BMP180;11328;53.928;18.522;2024-03-29T05:52:51;98768.00;;;9.10
22322;BMP180;11328;53.928;18.522;2024-03-29T05:55:18;98782.00;;;9.30
22322;BMP180;11328;53.928;18.522;2024-03-29T05:57:44;98770.00;;;9.50
22322;BMP180;11328;53.928;18.522;2024-03-29T06:00:12;98779.00;;;9.70
22322;BMP180;11328;53.928;18.522;2024-03-29T06:02:43;98777.00;;;9.90
22322;BMP180;11328;53.928;18.522;2024-03-29T06:05:11;98782.00;;;9.90
22322;BMP180;11328;53.928;18.522;2024-03-29T06:07:38;98783.00;;;10.00
22322;BMP180;11328;53.928;18.522;2024-03-29T06:10:04;98772.00;;;10.20
22322;BMP180;11328;53.928;18.522;2024-03-29T06:12:32;98778.00;;;10.40
22322;BMP180;11328;53.928;18.522;2024-03-29T06:14:59;98782.00;;;10.60
22322;BMP180;11328;53.928;18.522;2024-03-29T06:17:44;98772.00;;;10.50
22322;BMP180;11328;53.928;18.522;2024-03-29T06:20:12;98778.00;;;10.60
22322;BMP180;11328;53.928;18.522;2024-03-29T06:22:38;98779.00;;;10.50
22322;BMP180;11328;53.928;18.522;2024-03-29T06:25:05;98774.00;;;10.60
22322;BMP180;11328;53.928;18.522;2024-03-29T06:27:35;98782.00;;;10.60
22322;BMP180;11328;53.928;18.522;2024-03-29T06:30:04;98773.00;;;10.60
22322;BMP180;11328;53.928;18.522;2024-03-29T06:32:31;98765.00;;;10.80
22322;BMP180;11328;53.928;18.522;2024-03-29T06:34:58;98767.00;;;11.00
22322;BMP180;11328;53.928;18.522;2024-03-29T06:37:25;98783.00;;;11.00
22322;BMP180;11328;53.928;18.522;2024-03-29T06:39:52;98788.00;;;11.10
22322;BMP180;11328;53.928;18.522;2024-03-29T06:42:18;98787.00;;;11.20
22322;BMP180;11328;53.928;18.522;2024-03-29T06:44:45;98783.00;;;11.20
22322;BMP180;11328;53.928;18.522;2024-03-29T06:47:12;98796.00;;;11.50
22322;BMP180;11328;53.928;18.522;2024-03-29T06:49:39;98800.00;;;11.60
22322;BMP180;11328;53.928;18.522;2024-03-29T06:52:05;98801.00;;;11.80
22322;BMP180;11328;53.928;18.522;2024-03-29T06:54:32;98814.00;;;11.90
22322;BMP180;11328;53.928;18.522;2024-03-29T06:56:59;98823.00;;;11.90
22322;BMP180;11328;53.928;18.522;2024-03-29T06:59:28;98825.00;;;12.00
22322;BMP180;11328;53.928;18.522;2024-03-29T07:01:54;98826.00;;;11.90
22322;BMP180;11328;53.928;18.522;2024-03-29T07:04:24;98829.00;;;12.20
22322;BMP180;11328;53.928;18.522;2024-03-29T07:06:51;98826.00;;;12.40
22322;BMP180;11328;53.928;18.522;2024-03-29T07:09:19;98834.00;;;12.40
22322;BMP180;11328;53.928;18.522;2024-03-29T07:11:51;98839.00;;;12.40
22322;BMP180;11328;53.928;18.522;2024-03-29T07:14:18;98842.00;;;12.60
22322;BMP180;11328;53.928;18.522;2024-03-29T07:16:45;98853.00;;;12.80
22322;BMP180;11328;53.928;18.522;2024-03-29T07:19:13;98857.00;;;13.00
22322;BMP180;11328;53.928;18.522;2024-03-29T07:21:40;98873.00;;;12.80
22322;BMP180;11328;53.928;18.522;2024-03-29T07:24:06;98877.00;;;12.70
22322;BMP180;11328;53.928;18.522;2024-03-29T07:26:33;98870.00;;;12.90
22322;BMP180;11328;53.928;18.522;2024-03-29T07:28:59;98871.00;;;13.20
22322;BMP180;11328;53.928;18.522;2024-03-29T07:31:25;98872.00;;;13.40
22322;BMP180;11328;53.928;18.522;2024-03-29T07:33:52;98883.00;;;13.40
22322;BMP180;11328;53.928;18.522;2024-03-29T07:36:18;98874.00;;;13.50
22322;BMP180;11328;53.928;18.522;2024-03-29T07:38:44;98881.00;;;13.50
22322;BMP180;11328;53.928;18.522;2024-03-29T07:41:11;98888.00;;;13.70
22322;BMP180;11328;53.928;18.522;2024-03-29T07:43:54;98875.00;;;13.50
22322;BMP180;11328;53.928;18.522;2024-03-29T07:46:28;98859.00;;;13.40
22322;BMP180;11328;53.928;18.522;2024-03-29T07:48:55;98876.00;;;13.60
22322;BMP180;11328;53.928;18.522;2024-03-29T07:51:21;98872.00;;;13.80
22322;BMP180;11328;53.928;18.522;2024-03-29T07:53:48;98885.00;;;14.20
22322;BMP180;11328;53.928;18.522;2024-03-29T07:56:14;98867.00;;;14.00
22322;BMP180;11328;53.928;18.522;2024-03-29T07:58:41;98878.00;;;14.30
22322;BMP180;11328;53.928;18.522;2024-03-29T08:01:07;98875.00;;;14.50
22322;BMP180;11328;53.928;18.522;2024-03-29T08:03:33;98892.00;;;14.40
22322;BMP180;11328;53.928;18.522;2024-03-29T08:06:04;98905.00;;;14.50
22322;BMP180;11328;53.928;18.522;2024-03-29T08:08:33;98904.00;;;14.70
22322;BMP180;11328;53.928;18.522;2024-03-29T08:11:00;98915.00;;;14.90
22322;BMP180;11328;53.928;18.522;2024-03-29T08:13:27;98918.00;;;14.90
22322;BMP180;11328;53.928;18.522;2024-03-29T08:15:58;98924.00;;;14.70
22322;BMP180;11328;53.928;18.522;2024-03-29T08:18:28;98929.00;;;14.90
22322;BMP180;11328;53.928;18.522;2024-03-29T08:20:54;98922.00;;;14.70
22322;BMP180;11328;53.928;18.522;2024-03-29T08:23:25;98934.00;;;14.70
22322;BMP180;11328;53.928;18.522;2024-03-29T08:25:51;98940.00;;;14.80
22322;BMP180;11328;53.928;18.522;2024-03-29T08:28:18;98930.00;;;15.10
22322;BMP180;11328;53.928;18.522;2024-03-29T08:30:45;98942.00;;;14.80
22322;BMP180;11328;53.928;18.522;2024-03-29T08:33:11;98941.00;;;14.60
22322;BMP180;11328;53.928;18.522;2024-03-29T08:35:38;98940.00;;;14.80
22322;BMP180;11328;53.928;18.522;2024-03-29T08:38:09;98942.00;;;15.10
22322;BMP180;11328;53.928;18.522;2024-03-29T08:40:35;98953.00;;;14.30
22322;BMP180;11328;53.928;18.522;2024-03-29T08:43:04;98933.00;;;15.10
22322;BMP180;11328;53.928;18.522;2024-03-29T08:45:30;98941.00;;;15.30
22322;BMP180;11328;53.928;18.522;2024-03-29T08:47:56;98933.00;;;15.20
22322;BMP180;11328;53.928;18.522;2024-03-29T08:50:22;98936.00;;;15.50
22322;BMP180;11328;53.928;18.522;2024-03-29T08:52:49;98941.00;;;15.50
22322;BMP180;11328;53.928;18.522;2024-03-29T08:55:15;98945.00;;;15.70
22322;BMP180;11328;53.928;18.522;2024-03-29T08:57:41;98942.00;;;15.80
22322;BMP180;11328;53.928;18.522;2024-03-29T09:00:08;98957.00;;;15.70
22322;BMP180;11328;53.928;18.522;2024-03-29T09:02:35;98966.00;;;15.90
22322;BMP180;11328;53.928;18.522;2024-03-29T09:05:01;98964.00;;;15.90
22322;BMP180;11328;53.928;18.522;2024-03-29T09:07:28;98971.00;;;15.90
22322;BMP180;11328;53.928;18.522;2024-03-29T09:09:54;98966.00;;;16.00
22322;BMP180;11328;53.928;18.522;2024-03-29T09:12:21;98970.00;;;16.00
22322;BMP180;11328;53.928;18.522;2024-03-29T09:14:47;98978.00;;;16.10
22322;BMP180;11328;53.928;18.522;2024-03-29T09:17:13;98974.00;;;15.90
22322;BMP180;11328;53.928;18.522;2024-03-29T09:19:39;98969.00;;;15.90
22322;BMP180;11328;53.928;18.522;2024-03-29T09:22:05;98970.00;;;16.10
22322;BMP180;11328;53.928;18.522;2024-03-29T09:24:31;98968.00;;;16.30
22322;BMP180;11328;53.928;18.522;2024-03-29T09:27:00;98967.00;;;16.50
22322;BMP180;11328;53.928;18.522;2024-03-29T09:29:27;98965.00;;;16.50
22322;BMP180;11328;53.928;18.522;2024-03-29T09:31:53;98970.00;;;16.60
22322;BMP180;11328;53.928;18.522;2024-03-29T09:34:19;98965.00;;;16.70
22322;BMP180;11328;53.928;18.522;2024-03-29T09:36:45;98976.00;;;16.70
22322;BMP180;11328;53.928;18.522;2024-03-29T09:39:11;98967.00;;;16.60
22322;BMP180;11328;53.928;18.522;2024-03-29T09:41:38;98974.00;;;16.40
22322;BMP180;11328;53.928;18.522;2024-03-29T09:44:06;98973.00;;;16.60
22322;BMP180;11328;53.928;18.522;2024-03-29T09:46:36;98992.00;;;16.90
22322;BMP180;11328;53.928;18.522;2024-03-29T09:49:06;99004.00;;;17.10
22322;BMP180;11328;53.928;18.522;2024-03-29T09:51:34;98981.00;;;17.10
22322;BMP180;11328;53.928;18.522;2024-03-29T09:54:00;98998.00;;;17.10
22322;BMP180;11328;53.928;18.522;2024-03-29T09:56:29;99007.00;;;17.20
22322;BMP180;11328;53.928;18.522;2024-03-29T09:58:56;99006.00;;;17.40
22322;BMP180;11328;53.928;18.522;2024-03-29T10:01:23;99007.00;;;17.30
22322;BMP180;11328;53.928;18.522;2024-03-29T10:03:50;99032.00;;;17.60
22322;BMP180;11328;53.928;18.522;2024-03-29T10:06:18;99026.00;;;17.50
22322;BMP180;11328;53.928;18.522;2024-03-29T10:08:46;99033.00;;;17.20
22322;BMP180;11328;53.928;18.522;2024-03-29T10:11:14;99016.00;;;17.30
22322;BMP180;11328;53.928;18.522;2024-03-29T10:13:45;99048.00;;;17.10
22322;BMP180;11328;53.928;18.522;2024-03-29T10:16:12;99028.00;;;17.00
22322;BMP180;11328;53.928;18.522;2024-03-29T10:18:41;99013.00;;;16.80
22322;BMP180;11328;53.928;18.522;2024-03-29T10:21:09;99020.00;;;16.70
22322;BMP180;11328;53.928;18.522;2024-03-29T10:23:37;99012.00;;;16.60
22322;BMP180;11328;53.928;18.522;2024-03-29T10:26:03;99020.00;;;16.90
22322;BMP180;11328;53.928;18.522;2024-03-29T10:28:36;99023.00;;;17.10
22322;BMP180;11328;53.928;18.522;2024-03-29T10:31:03;99019.00;;;17.00
22322;BMP180;11328;53.928;18.522;2024-03-29T10:33:33;99037.00;;;17.00
22322;BMP180;11328;53.928;18.522;2024-03-29T10:36:01;99047.00;;;17.00
22322;BMP180;11328;53.928;18.522;2024-03-29T10:38:31;99056.00;;;17.20
22322;BMP180;11328;53.928;18.522;2024-03-29T10:40:57;99058.00;;;17.20
22322;BMP180;11328;53.928;18.522;2024-03-29T10:43:25;99069.00;;;17.20
22322;BMP180;11328;53.928;18.522;2024-03-29T10:45:51;99050.00;;;17.20
22322;BMP180;11328;53.928;18.522;2024-03-29T10:48:21;99062.00;;;17.20
22322;BMP180;11328;53.928;18.522;2024-03-29T10:50:48;99065.00;;;17.10
22322;BMP180;11328;53.928;18.522;2024-03-29T10:53:17;99053.00;;;17.10
22322;BMP180;11328;53.928;18.522;2024-03-29T10:55:43;99051.00;;;16.90
22322;BMP180;11328;53.928;18.522;2024-03-29T10:58:12;99052.00;;;16.90
22322;BMP180;11328;53.928;18.522;2024-03-29T11:00:48;99062.00;;;17.00
22322;BMP180;11328;53.928;18.522;2024-03-29T11:03:20;99063.00;;;16.90
22322;BMP180;11328;53.928;18.522;2024-03-29T11:05:50;99073.00;;;17.10
22322;BMP180;11328;53.928;18.522;2024-03-29T11:08:22;99061.00;;;17.20
22322;BMP180;11328;53.928;18.522;2024-03-29T11:10:57;99047.00;;;17.10
22322;BMP180;11328;53.928;18.522;2024-03-29T11:13:40;99061.00;;;17.10
22322;BMP180;11328;53.928;18.522;2024-03-29T11:16:11;99061.00;;;17.00
22322;BMP180;11328;53.928;18.522;2024-03-29T11:18:38;99066.00;;;17.10
22322;BMP180;11328;53.928;18.522;2024-03-29T11:21:06;99074.00;;;17.10
22322;BMP180;11328;53.928;18.522;2024-03-29T11:23:35;99064.00;;;17.20
22322;BMP180;11328;53.928;18.522;2024-03-29T11:26:01;99038.00;;;17.20
22322;BMP180;11328;53.928;18.522;2024-03-29T11:28:33;99047.00;;;17.40
22322;BMP180;11328;53.928;18.522;2024-03-29T11:31:08;99038.00;;;17.40
22322;BMP180;11328;53.928;18.522;2024-03-29T11:33:44;99048.00;;;17.30
22322;BMP180;11328;53.928;18.522;2024-03-29T11:36:21;99044.00;;;17.00
22322;BMP180;11328;53.928;18.522;2024-03-29T11:38:55;99047.00;;;16.90
22322;BMP180;11328;53.928;18.522;2024-03-29T11:41:27;99032.00;;;16.90
22322;BMP180;11328;53.928;18.522;2024-03-29T11:43:55;99032.00;;;17.00
22322;BMP180;11328;53.928;18.522;2024-03-29T11:46:23;99023.00;;;17.00
22322;BMP180;11328;53.928;18.522;2024-03-29T11:48:50;99032.00;;;17.00
22322;BMP180;11328;53.928;18.522;2024-03-29T11:51:20;99033.00;;;17.10
22322;BMP180;11328;53.928;18.522;2024-03-29T11:53:48;99035.00;;;17.10
22322;BMP180;11328;53.928;18.522;2024-03-29T11:56:17;99011.00;;;17.00
22322;BMP180;11328;53.928;18.522;2024-03-29T11:58:44;99022.00;;;17.10
22322;BMP180;11328;53.928;18.522;2024-03-29T12:01:10;99035.00;;;17.20
22322;BMP180;11328;53.928;18.522;2024-03-29T12:03:41;99029.00;;;17.30
22322;BMP180;11328;53.928;18.522;2024-03-29T12:06:09;99029.00;;;17.20
22322;BMP180;11328;53.928;18.522;2024-03-29T12:08:40;99030.00;;;17.10
22322;BMP180;11328;53.928;18.522;2024-03-29T12:11:08;99029.00;;;17.20
22322;BMP180;11328;53.928;18.522;2024-03-29T12:13:35;99025.00;;;17.30
22322;BMP180;11328;53.928;18.522;2024-03-29T12:16:01;99029.00;;;17.30
22322;BMP180;11328;53.928;18.522;2024-03-29T12:18:27;99037.00;;;17.10
22322;BMP180;11328;53.928;18.522;2024-03-29T12:20:55;99050.00;;;16.90
22322;BMP180;11328;53.928;18.522;2024-03-29T12:23:22;99062.00;;;17.00
22322;BMP180;11328;53.928;18.522;2024-03-29T12:25:56;99063.00;;;17.00
22322;BMP180;11328;53.928;18.522;2024-03-29T12:28:25;99061.00;;;17.10
22322;BMP180;11328;53.928;18.522;2024-03-29T12:30:51;99066.00;;;17.20
22322;BMP180;11328;53.928;18.522;2024-03-29T12:33:21;99070.00;;;17.30
22322;BMP180;11328;53.928;18.522;2024-03-29T12:35:50;99075.00;;;17.40
22322;BMP180;11328;53.928;18.522;2024-03-29T12:38:21;99077.00;;;17.50
22322;BMP180;11328;53.928;18.522;2024-03-29T12:40:49;99071.00;;;17.60
22322;BMP180;11328;53.928;18.522;2024-03-29T12:43:24;99075.00;;;17.50
22322;BMP180;11328;53.928;18.522;2024-03-29T12:45:51;99080.00;;;17.40
22322;BMP180;11328;53.928;18.522;2024-03-29T12:48:20;99069.00;;;17.30
22322;BMP180;11328;53.928;18.522;2024-03-29T12:50:48;99071.00;;;17.50
22322;BMP180;11328;53.928;18.522;2024-03-29T12:53:15;99057.00;;;17.70
22322;BMP180;11328;53.928;18.522;2024-03-29T12:55:47;99073.00;;;17.80
22322;BMP180;11328;53.928;18.522;2024-03-29T12:58:15;99061.00;;;17.60
22322;BMP180;11328;53.928;18.522;2024-03-29T13:00:44;99051.00;;;17.50
22322;BMP180;11328;53.928;18.522;2024-03-29T13:03:10;99051.00;;;17.50
22322;BMP180;11328;53.928;18.522;2024-03-29T13:05:38;99048.00;;;17.60
22322;BMP180;11328;53.928;18.522;2024-03-29T13:08:11;99062.00;;;17.60
22322;BMP180;11328;53.928;18.522;2024-03-29T13:10:40;99056.00;;;17.90
22322;BMP180;11328;53.928;18.522;2024-03-29T13:13:08;99056.00;;;17.80
22322;BMP180;11328;53.928;18.522;2024-03-29T13:15:39;99059.00;;;17.60
22322;BMP180;11328;53.928;18.522;2024-03-29T13:18:06;99058.00;;;17.60
22322;BMP180;11328;53.928;18.522;2024-03-29T13:20:36;99054.00;;;17.80
22322;BMP180;11328;53.928;18.522;2024-03-29T13:23:11;99058.00;;;17.60
22322;BMP180;11328;53.928;18.522;2024-03-29T13:25:37;99060.00;;;17.70
22322;BMP180;11328;53.928;18.522;2024-03-29T13:28:05;99068.00;;;17.90
22322;BMP180;11328;53.928;18.522;2024-03-29T13:30:33;99068.00;;;18.10
22322;BMP180;11328;53.928;18.522;2024-03-29T13:32:59;99068.00;;;18.30
22322;BMP180;11328;53.928;18.522;2024-03-29T13:35:25;99055.00;;;18.30
22322;BMP180;11328;53.928;18.522;2024-03-29T13:37:52;99060.00;;;18.20
22322;BMP180;11328;53.928;18.522;2024-03-29T13:40:23;99060.00;;;18.20
22322;BMP180;11328;53.928;18.522;2024-03-29T13:42:50;99068.00;;;18.20
22322;BMP180;11328;53.928;18.522;2024-03-29T13:57:16;99065.00;;;19.10
22322;BMP180;11328;53.928;18.522;2024-03-29T13:59:44;99061.00;;;19.00
22322;BMP180;11328;53.928;18.522;2024-03-29T14:02:16;99078.00;;;19.00
22322;BMP180;11328;53.928;18.522;2024-03-29T14:04:44;99073.00;;;19.00
22322;BMP180;11328;53.928;18.522;2024-03-29T14:07:12;99075.00;;;19.00
22322;BMP180;11328;53.928;18.522;2024-03-29T14:09:41;99065.00;;;18.60
22322;BMP180;11328;53.928;18.522;2024-03-29T14:12:07;99063.00;;;18.60
22322;BMP180;11328;53.928;18.522;2024-03-29T14:14:34;99069.00;;;18.70
22322;BMP180;11328;53.928;18.522;2024-03-29T14:17:00;99058.00;;;18.60